GTRO2: Cimmarron R.,Guthrie, OK

Data processed at Sun May 28 2017 22:36


All information presented herein is the property of the government of the United States of America and may be revised or deleted at any time without prior notice.
Dissemination of this information without the expressed written consent of the Public Affairs Office, Tulsa District U.S. Army Corps of Engineers is strictly prohibited.
These data are gathered electronically and, as presented, have not undergone any form of quality control. These data are not guaranteed to be valid or correct.
Go to home page.
Go to station list.
Go to home page.

Upstream stations:

Downstream station:
Previous Day
Next Day
Current Day
    
SHEF ID:       GTRO2     Cimarron River near Guthrie, OK
STATION TYPE:  

               PRECIP     STAGE  RIV-FLOW  BAT-LOAD
                   in        ft       cfs      volt
              Ccp-Rev   Ccp-Rev   Ccp-Rev   Ccp-Rev
(US/Central)
05/28 00:00      0.00      6.96      1007     12.49
05/28 01:00      0.00      6.94       992     12.49
05/28 02:00      0.00      6.94       992     12.49
05/28 03:00      0.00      6.93       985     12.41
05/28 04:00      0.00      6.90       963     12.41
05/28 05:00      0.00      6.92       978     12.41
05/28 06:00      0.00      6.91       970     12.41
05/28 07:00      0.00      6.90       963     12.41
05/28 08:00      0.00      6.91       970     12.89
05/28 09:00      0.00      6.92       978     13.37
05/28 10:00      0.00      6.88       949     13.21
05/28 11:00      0.00      6.89       956     13.13
05/28 12:00      0.00      6.87       942     13.21
05/28 13:00      0.00      6.86       935     12.97
05/28 14:00      0.00      6.87       942     12.97
05/28 15:00      0.00      6.86       935     12.97
05/28 16:00      0.00      6.85       928     12.97
05/28 17:00      0.00      6.84       921     12.81
05/28 18:00      0.00      6.84       921     12.73
05/28 19:00      0.00      6.83       914     12.73
05/28 20:00      0.00      6.83       914     12.65
05/28 21:00      0.00      6.82       907     12.49
05/28 22:00      0.00      6.82      ----     12.49
05/28 23:00      ----      ----      ----      ----